createdAt,value
2022-12-08T00:00:05.041Z,100.00
2022-12-08T00:02:38.754Z,100.00
2022-12-08T00:05:24.971Z,100.00
2022-12-08T00:08:09.926Z,100.00
2022-12-08T00:10:51.827Z,100.00
2022-12-08T00:13:18.474Z,100.00
2022-12-08T00:15:45.009Z,100.00
2022-12-08T00:18:11.672Z,100.00
2022-12-08T00:20:39.098Z,100.00
2022-12-08T00:23:05.956Z,100.00
2022-12-08T00:25:36.667Z,100.00
2022-12-08T00:28:03.282Z,100.00
2022-12-08T00:30:29.930Z,100.00
2022-12-08T00:32:56.592Z,100.00
2022-12-08T00:35:23.399Z,100.00
2022-12-08T00:37:50.031Z,100.00
2022-12-08T00:40:16.604Z,100.00
2022-12-08T00:42:43.213Z,100.00
2022-12-08T00:45:10.352Z,100.00
2022-12-08T00:47:36.871Z,100.00
2022-12-08T00:50:04.350Z,100.00
2022-12-08T00:52:31.059Z,100.00
2022-12-08T00:54:57.588Z,100.00
2022-12-08T00:57:24.156Z,100.00
2022-12-08T00:59:50.746Z,100.00
2022-12-08T01:02:17.312Z,100.00
2022-12-08T01:04:43.957Z,100.00
2022-12-08T01:07:10.502Z,100.00
2022-12-08T01:09:37.269Z,100.00
2022-12-08T01:12:05.103Z,100.00
2022-12-08T01:14:31.701Z,100.00
2022-12-08T01:16:58.452Z,100.00
2022-12-08T01:19:25.131Z,100.00
2022-12-08T01:21:51.625Z,100.00
2022-12-08T01:24:20.947Z,100.00
2022-12-08T01:26:48.431Z,100.00
2022-12-08T01:29:15.574Z,100.00
2022-12-08T01:31:42.581Z,100.00
2022-12-08T01:34:10.599Z,100.00
2022-12-08T01:36:38.194Z,100.00
2022-12-08T01:39:07.686Z,100.00
2022-12-08T01:41:36.439Z,100.00
2022-12-08T01:44:22.908Z,100.00
2022-12-08T01:46:49.828Z,100.00
2022-12-08T01:49:23.994Z,100.00
2022-12-08T01:52:01.303Z,100.00
2022-12-08T01:54:37.065Z,100.00
2022-12-08T01:57:08.547Z,100.00
2022-12-08T01:59:41.503Z,100.00
2022-12-08T02:02:10.520Z,100.00
2022-12-08T02:04:37.612Z,100.00
2022-12-08T02:07:08.279Z,100.00
2022-12-08T02:09:36.553Z,100.00
2022-12-08T02:12:04.090Z,100.00
2022-12-08T02:14:30.739Z,100.00
2022-12-08T02:17:12.506Z,100.00
2022-12-08T02:20:15.728Z,100.00
2022-12-08T02:22:55.006Z,100.00
2022-12-08T02:25:31.216Z,100.00
2022-12-08T02:28:12.803Z,100.00
2022-12-08T02:31:24.020Z,100.00
2022-12-08T02:33:53.274Z,100.00
2022-12-08T02:36:28.648Z,100.00
2022-12-08T02:39:25.192Z,100.00
2022-12-08T02:42:16.549Z,100.00
2022-12-08T02:44:51.663Z,100.00
2022-12-08T02:47:20.427Z,100.00
2022-12-08T02:49:47.821Z,100.00
2022-12-08T02:52:14.250Z,100.00
2022-12-08T02:54:56.437Z,100.00
2022-12-08T02:57:32.076Z,100.00
2022-12-08T03:00:14.036Z,100.00
2022-12-08T03:02:59.330Z,100.00
2022-12-08T03:05:58.314Z,100.00
2022-12-08T03:08:35.362Z,100.00
2022-12-08T03:11:10.311Z,100.00
2022-12-08T03:13:44.950Z,100.00
2022-12-08T03:16:16.285Z,100.00
2022-12-08T03:18:48.352Z,100.00
2022-12-08T03:21:17.756Z,100.00
2022-12-08T03:23:48.006Z,100.00
2022-12-08T03:26:25.148Z,100.00
2022-12-08T03:28:51.734Z,100.00
2022-12-08T03:31:20.068Z,100.00
2022-12-08T03:33:51.587Z,100.00
2022-12-08T03:36:19.427Z,100.00
2022-12-08T03:38:50.010Z,100.00
2022-12-08T03:41:19.249Z,100.00
2022-12-08T03:43:52.715Z,100.00
2022-12-08T03:48:48.240Z,100.00
2022-12-08T03:51:15.591Z,100.00
2022-12-08T03:53:42.334Z,100.00
2022-12-08T03:56:16.678Z,100.00
2022-12-08T03:58:43.913Z,100.00
2022-12-08T04:01:11.067Z,100.00
2022-12-08T04:03:37.698Z,100.00
2022-12-08T04:06:04.436Z,100.00
2022-12-08T04:08:30.931Z,100.00
2022-12-08T04:10:57.463Z,100.00
2022-12-08T04:13:24.045Z,100.00
2022-12-08T04:15:50.835Z,100.00
2022-12-08T04:18:17.408Z,100.00
2022-12-08T04:20:45.179Z,100.00
2022-12-08T04:23:12.463Z,100.00
2022-12-08T04:25:39.386Z,100.00
2022-12-08T04:28:06.686Z,100.00
2022-12-08T04:30:33.727Z,100.00
2022-12-08T04:33:00.246Z,100.00
2022-12-08T04:35:28.558Z,100.00
2022-12-08T04:37:55.059Z,100.00
2022-12-08T04:40:21.610Z,100.00
2022-12-08T04:42:48.206Z,100.00
2022-12-08T04:45:15.590Z,100.00
2022-12-08T04:47:42.234Z,100.00
2022-12-08T04:50:09.099Z,100.00
2022-12-08T04:52:36.517Z,100.00
2022-12-08T04:55:03.993Z,100.00
2022-12-08T04:57:30.505Z,100.00
2022-12-08T04:59:57.088Z,100.00
2022-12-08T05:02:23.772Z,100.00
2022-12-08T05:04:50.505Z,100.00
2022-12-08T05:07:17.020Z,100.00
2022-12-08T05:09:43.956Z,100.00
2022-12-08T05:12:10.664Z,100.00
2022-12-08T05:14:37.193Z,100.00
2022-12-08T05:17:09.157Z,100.00
2022-12-08T05:19:36.289Z,100.00
2022-12-08T05:22:02.847Z,100.00
2022-12-08T05:24:29.376Z,100.00
2022-12-08T05:26:55.999Z,100.00
2022-12-08T05:29:22.613Z,100.00
2022-12-08T05:31:49.244Z,100.00
2022-12-08T05:34:15.978Z,100.00
2022-12-08T05:36:42.521Z,100.00
2022-12-08T05:39:12.441Z,100.00
2022-12-08T05:41:39.276Z,100.00
2022-12-08T05:44:06.133Z,100.00
2022-12-08T05:46:33.397Z,100.00
2022-12-08T05:49:00.609Z,100.00
2022-12-08T05:51:27.776Z,100.00
2022-12-08T05:53:57.121Z,100.00
2022-12-08T05:56:24.058Z,100.00
2022-12-08T05:58:50.669Z,100.00
2022-12-08T06:01:25.745Z,100.00
2022-12-08T06:03:52.869Z,100.00
2022-12-08T06:06:20.402Z,100.00
2022-12-08T06:08:47.161Z,100.00
2022-12-08T06:11:22.395Z,100.00
2022-12-08T06:13:49.702Z,100.00
2022-12-08T06:16:16.919Z,100.00
2022-12-08T06:18:43.955Z,100.00
2022-12-08T06:21:12.510Z,100.00
2022-12-08T06:23:39.248Z,100.00
2022-12-08T06:26:09.413Z,100.00
2022-12-08T06:28:36.454Z,100.00
2022-12-08T06:31:20.875Z,100.00
2022-12-08T06:33:48.039Z,100.00
2022-12-08T06:36:17.074Z,100.00
2022-12-08T06:38:44.331Z,100.00
2022-12-08T06:41:12.215Z,100.00
2022-12-08T06:43:39.484Z,100.00
2022-12-08T06:46:09.108Z,100.00
2022-12-08T06:48:35.949Z,100.00
2022-12-08T06:51:15.084Z,100.00
2022-12-08T06:53:42.886Z,100.00
2022-12-08T06:56:10.722Z,100.00
2022-12-08T06:58:37.670Z,100.00
2022-12-08T07:01:10.329Z,100.00
2022-12-08T07:03:38.017Z,100.00
2022-12-08T07:06:05.742Z,100.00
2022-12-08T07:08:34.053Z,100.00
2022-12-08T07:11:08.384Z,100.00
2022-12-08T07:13:34.993Z,100.00
2022-12-08T07:16:04.443Z,100.00
2022-12-08T07:18:30.951Z,100.00
2022-12-08T07:21:02.334Z,100.00
2022-12-08T07:23:28.892Z,100.00
2022-12-08T07:25:55.473Z,100.00
2022-12-08T07:28:22.018Z,100.00
2022-12-08T07:30:48.627Z,100.00
2022-12-08T07:33:15.225Z,100.00
2022-12-08T07:35:46.326Z,100.00
2022-12-08T07:38:15.599Z,100.00
2022-12-08T07:40:42.218Z,100.00
2022-12-08T07:43:08.884Z,100.00
2022-12-08T07:45:35.388Z,100.00
2022-12-08T07:48:01.909Z,100.00
2022-12-08T07:50:28.516Z,100.00
2022-12-08T07:52:55.045Z,100.00
2022-12-08T07:55:21.845Z,100.00
2022-12-08T07:57:50.647Z,100.00
2022-12-08T08:00:18.650Z,100.00
2022-12-08T08:02:45.702Z,100.00
2022-12-08T08:05:13.032Z,100.00
2022-12-08T08:07:44.153Z,100.00
2022-12-08T08:10:12.320Z,100.00
2022-12-08T08:12:39.099Z,100.00
2022-12-08T08:15:07.922Z,100.00
2022-12-08T08:17:36.751Z,100.00
2022-12-08T08:20:08.001Z,100.00
2022-12-08T08:22:35.437Z,100.00
2022-12-08T08:25:02.137Z,100.00
2022-12-08T08:27:29.053Z,100.00
2022-12-08T08:29:55.564Z,100.00
2022-12-08T08:32:22.074Z,100.00
2022-12-08T08:34:51.814Z,100.00
2022-12-08T08:37:18.539Z,100.00
2022-12-08T08:39:45.181Z,100.00
2022-12-08T08:42:11.704Z,100.00
2022-12-08T08:44:38.976Z,100.00
2022-12-08T08:47:05.662Z,100.00
2022-12-08T08:49:32.402Z,100.00
2022-12-08T08:51:59.102Z,100.00
2022-12-08T08:54:25.641Z,100.00
2022-12-08T08:56:52.871Z,100.00
2022-12-08T08:59:19.499Z,100.00
2022-12-08T09:01:46.314Z,100.00
2022-12-08T09:04:13.055Z,100.00
2022-12-08T09:06:39.770Z,100.00
2022-12-08T09:09:06.388Z,100.00
2022-12-08T09:11:33.291Z,100.00
2022-12-08T09:13:59.959Z,100.00
2022-12-08T09:16:27.070Z,100.00
2022-12-08T09:18:54.272Z,100.00
2022-12-08T09:21:24.400Z,100.00
2022-12-08T09:23:53.132Z,100.00
2022-12-08T09:26:22.627Z,100.00
2022-12-08T09:28:51.063Z,100.00
2022-12-08T09:31:18.852Z,100.00
2022-12-08T09:33:47.613Z,100.00
2022-12-08T09:36:14.666Z,100.00
2022-12-08T09:38:41.435Z,100.00
2022-12-08T09:41:20.189Z,100.00
2022-12-08T09:44:02.600Z,100.00
2022-12-08T09:46:32.232Z,100.00
2022-12-08T09:49:00.683Z,100.00
2022-12-08T09:51:39.576Z,100.00
2022-12-08T09:54:12.645Z,100.00
2022-12-08T09:56:39.892Z,100.00
2022-12-08T09:59:20.943Z,100.00
2022-12-08T10:01:47.786Z,100.00
2022-12-08T10:04:36.532Z,100.00
2022-12-08T10:07:35.005Z,100.00
2022-12-08T10:10:27.663Z,100.00
2022-12-08T10:12:56.574Z,100.00
2022-12-08T10:15:42.126Z,100.00
2022-12-08T10:18:18.554Z,100.00
2022-12-08T10:20:50.402Z,100.00
2022-12-08T10:23:33.103Z,100.00
2022-12-08T10:26:04.721Z,100.00
2022-12-08T10:28:33.306Z,100.00
2022-12-08T10:31:00.015Z,100.00
2022-12-08T10:33:29.162Z,100.00
2022-12-08T10:36:03.205Z,100.00
2022-12-08T10:38:35.367Z,100.00
2022-12-08T10:41:13.101Z,100.00
2022-12-08T10:43:52.848Z,100.00
2022-12-08T10:46:22.737Z,100.00
2022-12-08T10:48:54.297Z,100.00
2022-12-08T10:51:39.621Z,100.00
2022-12-08T10:54:24.345Z,100.00
2022-12-08T10:56:56.192Z,100.00
2022-12-08T10:59:26.361Z,100.00
2022-12-08T11:01:56.126Z,100.00
2022-12-08T11:04:34.387Z,100.00
2022-12-08T11:07:01.628Z,100.00
2022-12-08T11:09:36.355Z,100.00
2022-12-08T11:12:09.414Z,100.00
2022-12-08T11:14:42.113Z,100.00
2022-12-08T11:17:22.572Z,100.00
2022-12-08T11:20:06.477Z,100.00
2022-12-08T11:22:37.955Z,100.00
2022-12-08T11:25:07.126Z,100.00
2022-12-08T11:27:40.133Z,100.00
2022-12-08T11:30:34.580Z,98.14
2022-12-08T11:33:12.021Z,97.63
2022-12-08T11:35:44.932Z,97.97
2022-12-08T11:38:22.359Z,97.80
2022-12-08T11:41:15.568Z,97.58
2022-12-08T11:44:14.019Z,97.89
2022-12-08T11:47:11.446Z,98.03
2022-12-08T11:49:40.994Z,97.21
2022-12-08T11:52:20.066Z,96.58
2022-12-08T11:55:16.585Z,97.13
2022-12-08T11:57:44.892Z,96.92
2022-12-08T12:00:16.594Z,97.12
2022-12-08T12:02:48.854Z,97.62
2022-12-08T12:08:44.976Z,97.32
2022-12-08T12:11:52.168Z,97.16
2022-12-08T12:14:49.519Z,97.66
2022-12-08T12:17:42.004Z,96.33
2022-12-08T12:20:21.126Z,96.27
2022-12-08T12:22:55.249Z,96.85
2022-12-08T12:25:25.364Z,96.67
2022-12-08T12:28:01.438Z,96.18
2022-12-08T12:30:51.616Z,95.98
2022-12-08T12:33:19.657Z,96.64
2022-12-08T12:35:48.256Z,96.50
2022-12-08T12:38:44.520Z,95.47
2022-12-08T12:41:13.865Z,94.05
2022-12-08T12:43:40.578Z,94.92
2022-12-08T12:46:25.573Z,94.93
2022-12-08T12:48:53.543Z,94.66
2022-12-08T12:51:45.255Z,94.68
2022-12-08T12:54:28.257Z,95.20
2022-12-08T12:57:15.405Z,94.28
2022-12-08T12:59:53.326Z,94.82
2022-12-08T13:02:29.825Z,95.01
2022-12-08T13:05:27.711Z,96.01
2022-12-08T13:07:59.967Z,96.03
2022-12-08T13:10:56.676Z,95.64
2022-12-08T13:13:23.350Z,96.37
2022-12-08T13:15:56.007Z,95.66
2022-12-08T13:18:36.420Z,96.02
2022-12-08T13:21:09.114Z,96.69
2022-12-08T13:23:38.673Z,96.59
2022-12-08T13:26:12.494Z,97.11
2022-12-08T13:29:04.272Z,96.78
2022-12-08T13:31:36.913Z,97.92
2022-12-08T13:34:32.480Z,98.41
2022-12-08T13:37:21.782Z,97.71
2022-12-08T13:39:51.661Z,97.54
2022-12-08T13:42:29.595Z,97.10
2022-12-08T13:45:21.299Z,97.05
2022-12-08T13:48:21.786Z,96.93
2022-12-08T13:52:59.954Z,97.43
2022-12-08T13:59:34.049Z,96.54
2022-12-08T14:02:15.554Z,96.21
2022-12-08T14:05:16.729Z,95.77
2022-12-08T14:07:34.380Z,95.83
2022-12-08T14:10:03.734Z,95.83
2022-12-08T14:12:31.572Z,95.47
2022-12-08T14:15:03.607Z,95.99
2022-12-08T14:17:30.952Z,96.33
2022-12-08T14:20:04.704Z,95.89
2022-12-08T14:22:36.994Z,96.84
2022-12-08T14:25:05.279Z,96.74
2022-12-08T14:27:35.644Z,97.24
2022-12-08T14:30:21.546Z,97.19
2022-12-08T14:32:50.635Z,96.90
2022-12-08T14:35:38.036Z,96.67
2022-12-08T14:38:19.731Z,97.35
2022-12-08T14:41:08.903Z,97.40
2022-12-08T14:43:35.882Z,98.08
2022-12-08T14:46:19.906Z,97.98
2022-12-08T14:48:47.354Z,98.24
2022-12-08T14:51:23.019Z,98.32
2022-12-08T14:54:09.752Z,98.14
2022-12-08T14:56:36.246Z,97.99
2022-12-08T14:59:13.644Z,98.71
2022-12-08T15:01:42.313Z,98.94
2022-12-08T15:04:18.146Z,98.44
2022-12-08T15:06:54.291Z,98.84
2022-12-08T15:09:51.753Z,99.04
2022-12-08T15:12:27.283Z,99.38
2022-12-08T15:15:16.514Z,99.39
2022-12-08T15:17:57.551Z,99.75
2022-12-08T15:20:43.102Z,100.00
2022-12-08T15:23:31.157Z,100.00
2022-12-08T15:25:59.473Z,100.00
2022-12-08T15:28:30.392Z,100.00
2022-12-08T15:30:58.065Z,100.00
2022-12-08T15:33:25.015Z,100.00
2022-12-08T15:35:51.897Z,100.00
2022-12-08T15:38:31.511Z,100.00
2022-12-08T15:41:01.279Z,100.00
2022-12-08T15:43:28.452Z,100.00
2022-12-08T15:45:59.651Z,100.00
2022-12-08T15:48:28.839Z,100.00
2022-12-08T15:50:56.521Z,100.00
2022-12-08T15:53:23.583Z,100.00
2022-12-08T15:56:18.911Z,100.00
2022-12-08T15:58:53.782Z,100.00
2022-12-08T16:01:21.913Z,100.00
2022-12-08T16:09:29.817Z,100.00
2022-12-08T16:12:14.990Z,100.00
2022-12-08T16:17:31.145Z,99.71
2022-12-08T16:19:59.053Z,99.36
2022-12-08T16:25:20.440Z,98.82
2022-12-08T16:30:36.334Z,99.55
2022-12-08T16:33:03.074Z,99.62
2022-12-08T16:35:30.336Z,98.83
2022-12-08T16:37:57.360Z,99.22
2022-12-08T16:40:24.127Z,98.97
2022-12-08T16:42:50.888Z,98.77
2022-12-08T16:49:28.766Z,97.76
2022-12-08T16:51:55.516Z,97.66
2022-12-08T16:54:22.146Z,97.62
2022-12-08T16:56:48.760Z,97.77
2022-12-08T16:59:15.311Z,97.54
2022-12-08T17:01:42.103Z,97.34
2022-12-08T17:04:31.475Z,97.73
2022-12-08T17:06:55.317Z,97.03
2022-12-08T17:09:21.854Z,97.06
2022-12-08T17:11:48.375Z,96.73
2022-12-08T17:14:16.555Z,97.38
2022-12-08T17:16:44.697Z,96.83
2022-12-08T17:19:15.273Z,96.49
2022-12-08T17:21:42.852Z,96.30
2022-12-08T17:24:09.512Z,96.22
2022-12-08T17:26:36.156Z,96.55
2022-12-08T17:29:03.839Z,96.68
2022-12-08T17:31:32.339Z,96.37
2022-12-08T17:34:04.417Z,95.81
2022-12-08T17:36:32.012Z,96.28
2022-12-08T17:39:00.356Z,95.80
2022-12-08T17:41:27.347Z,95.52
2022-12-08T17:43:54.030Z,95.60
2022-12-08T17:46:21.856Z,96.10
2022-12-08T17:48:48.570Z,96.03
2022-12-08T17:51:15.824Z,95.73
2022-12-08T17:53:42.428Z,95.64
2022-12-08T17:56:20.192Z,95.42
2022-12-08T17:58:52.645Z,95.16
2022-12-08T18:01:22.274Z,94.91
2022-12-08T18:03:48.874Z,94.79
2022-12-08T18:06:17.477Z,94.33
2022-12-08T18:08:44.454Z,94.31
2022-12-08T18:11:14.212Z,94.83
2022-12-08T18:13:41.032Z,94.91
2022-12-08T18:16:07.846Z,95.20
2022-12-08T18:18:34.484Z,94.42
2022-12-08T18:21:01.575Z,94.89
2022-12-08T18:23:28.331Z,94.42
2022-12-08T18:25:54.979Z,94.49
2022-12-08T18:28:21.670Z,94.47
2022-12-08T18:30:48.636Z,94.73
2022-12-08T18:33:15.488Z,95.08
2022-12-08T18:35:42.417Z,95.24
2022-12-08T18:38:09.068Z,95.01
2022-12-08T18:40:35.623Z,95.66
2022-12-08T18:43:02.125Z,95.13
2022-12-08T18:45:29.195Z,95.60
2022-12-08T18:47:56.032Z,94.97
2022-12-08T18:50:22.753Z,95.26
2022-12-08T18:52:49.464Z,95.25
2022-12-08T18:55:16.103Z,95.47
2022-12-08T18:57:43.213Z,95.90
2022-12-08T19:00:14.817Z,95.79
2022-12-08T19:02:42.361Z,96.07
2022-12-08T19:05:10.959Z,96.08
2022-12-08T19:07:38.551Z,96.27
2022-12-08T19:10:07.302Z,96.80
2022-12-08T19:12:34.079Z,96.26
2022-12-08T19:15:00.706Z,96.31
2022-12-08T19:17:29.607Z,96.26
2022-12-08T19:19:56.501Z,96.79
2022-12-08T19:22:23.069Z,97.03
2022-12-08T19:24:50.203Z,96.86
2022-12-08T19:27:18.166Z,97.18
2022-12-08T19:29:44.644Z,96.84
2022-12-08T19:32:11.198Z,96.69
2022-12-08T19:34:37.773Z,96.99
2022-12-08T19:37:04.386Z,97.14
2022-12-08T19:39:49.722Z,96.88
2022-12-08T19:42:38.009Z,97.09
2022-12-08T19:45:07.672Z,97.21
2022-12-08T19:47:34.283Z,96.81
2022-12-08T19:50:19.819Z,97.40
2022-12-08T19:52:46.398Z,97.59
2022-12-08T19:55:13.579Z,97.56
2022-12-08T19:57:40.159Z,97.32
2022-12-08T20:00:08.971Z,97.84
2022-12-08T20:02:39.506Z,98.29
2022-12-08T20:05:07.324Z,98.19
2022-12-08T20:07:34.317Z,98.33
2022-12-08T20:10:02.633Z,98.45
2022-12-08T20:12:29.379Z,98.13
2022-12-08T20:14:55.921Z,98.03
2022-12-08T20:17:22.699Z,98.05
2022-12-08T20:19:49.775Z,98.19
2022-12-08T20:22:16.342Z,98.56
2022-12-08T20:24:42.987Z,98.07
2022-12-08T20:27:09.687Z,98.38
2022-12-08T20:29:36.345Z,99.07
2022-12-08T20:32:03.111Z,98.28
2022-12-08T20:34:31.364Z,98.33
2022-12-08T20:36:58.045Z,98.27
2022-12-08T20:39:24.906Z,98.15
2022-12-08T20:41:52.242Z,98.57
2022-12-08T20:44:18.805Z,98.34
2022-12-08T20:46:49.405Z,97.89
2022-12-08T20:49:16.425Z,97.92
2022-12-08T20:51:44.507Z,97.71
2022-12-08T20:54:11.497Z,97.70
2022-12-08T20:56:42.134Z,98.03
2022-12-08T20:59:16.836Z,97.93
2022-12-08T21:01:43.813Z,97.26
2022-12-08T21:04:14.274Z,97.57
2022-12-08T21:06:41.278Z,97.52
2022-12-08T21:09:08.810Z,96.97
2022-12-08T21:11:35.908Z,97.31
2022-12-08T21:14:03.001Z,97.20
2022-12-08T21:16:29.849Z,97.96
2022-12-08T21:18:57.632Z,98.00
2022-12-08T21:21:24.213Z,98.20
2022-12-08T21:23:51.311Z,98.54
2022-12-08T21:26:20.516Z,98.52
2022-12-08T21:28:47.560Z,98.51
2022-12-08T21:31:17.384Z,98.64
2022-12-08T21:33:44.126Z,98.91
2022-12-08T21:36:14.148Z,98.64
2022-12-08T21:38:41.870Z,99.10
2022-12-08T21:41:11.636Z,98.88
2022-12-08T21:43:38.748Z,98.86
2022-12-08T21:46:05.640Z,99.01
2022-12-08T21:48:32.369Z,99.06
2022-12-08T21:51:04.821Z,98.84
2022-12-08T21:53:31.674Z,99.26
2022-12-08T21:55:58.221Z,99.22
2022-12-08T21:58:26.405Z,99.85
2022-12-08T22:00:53.398Z,99.90
2022-12-08T22:03:20.240Z,100.00
2022-12-08T22:05:47.035Z,100.00
2022-12-08T22:08:13.779Z,99.67
2022-12-08T22:10:40.657Z,99.98
2022-12-08T22:13:07.601Z,99.77
2022-12-08T22:15:34.295Z,100.00
2022-12-08T22:18:01.106Z,99.77
2022-12-08T22:20:27.914Z,99.67
2022-12-08T22:22:54.941Z,100.00
2022-12-08T22:25:21.865Z,100.00
2022-12-08T22:27:48.650Z,99.95
2022-12-08T22:30:15.497Z,99.72
2022-12-08T22:32:42.596Z,100.00
2022-12-08T22:35:10.104Z,100.00
2022-12-08T22:37:37.025Z,100.00
2022-12-08T22:40:05.206Z,99.86
2022-12-08T22:42:33.390Z,100.00
2022-12-08T22:53:24.315Z,99.86
2022-12-08T22:55:51.013Z,100.00
2022-12-08T22:58:17.793Z,100.00
2022-12-08T23:00:44.358Z,100.00
2022-12-08T23:03:11.679Z,100.00
2022-12-08T23:05:39.829Z,100.00
2022-12-08T23:08:08.342Z,100.00
2022-12-08T23:10:35.855Z,100.00
2022-12-08T23:13:04.153Z,100.00
2022-12-08T23:15:31.602Z,100.00
2022-12-08T23:17:58.305Z,100.00
2022-12-08T23:20:25.284Z,100.00
2022-12-08T23:22:52.008Z,100.00
2022-12-08T23:25:19.061Z,100.00
2022-12-08T23:27:46.229Z,100.00
2022-12-08T23:30:13.723Z,100.00
2022-12-08T23:32:40.466Z,100.00
2022-12-08T23:35:07.994Z,100.00
2022-12-08T23:37:34.775Z,100.00
2022-12-08T23:40:01.891Z,100.00
2022-12-08T23:42:30.456Z,100.00
2022-12-08T23:44:57.226Z,100.00
2022-12-08T23:47:24.146Z,100.00
2022-12-08T23:49:50.840Z,100.00
2022-12-08T23:52:17.395Z,100.00
2022-12-08T23:54:44.850Z,100.00
2022-12-08T23:57:11.680Z,100.00
2022-12-08T23:59:38.233Z,100.00
